createdAt,value
2023-03-18T00:02:21.916Z,18.95
2023-03-18T00:04:51.420Z,18.67
2023-03-18T00:07:22.543Z,19.13
2023-03-18T00:09:52.857Z,19.30
2023-03-18T00:12:21.962Z,19.52
2023-03-18T00:14:51.582Z,18.33
2023-03-18T00:17:21.445Z,15.77
2023-03-18T00:19:50.534Z,22.65
2023-03-18T00:22:20.949Z,20.73
2023-03-18T00:24:50.040Z,17.85
2023-03-18T00:27:19.157Z,15.43
2023-03-18T00:29:48.675Z,14.48
2023-03-18T00:32:17.767Z,14.75
2023-03-18T00:34:46.918Z,19.27
2023-03-18T00:37:20.096Z,18.20
2023-03-18T00:39:50.751Z,18.90
2023-03-18T00:42:19.773Z,16.58
2023-03-18T00:44:49.027Z,15.68
2023-03-18T00:47:18.120Z,16.92
2023-03-18T00:49:47.322Z,16.75
2023-03-18T00:52:16.677Z,14.27
2023-03-18T00:54:45.942Z,15.20
2023-03-18T00:57:16.366Z,12.80
2023-03-18T00:59:45.600Z,12.45
2023-03-18T01:02:14.956Z,11.10
2023-03-18T01:04:48.995Z,11.85
2023-03-18T01:07:19.759Z,13.57
2023-03-18T01:09:51.181Z,13.00
2023-03-18T01:12:22.808Z,12.18
2023-03-18T01:14:52.598Z,12.52
2023-03-18T01:17:21.976Z,13.43
2023-03-18T01:19:51.125Z,13.77
2023-03-18T01:22:20.619Z,14.45
2023-03-18T01:24:52.765Z,13.25
2023-03-18T01:27:28.995Z,11.85
2023-03-18T01:30:01.198Z,11.63
2023-03-18T01:32:30.787Z,12.73
2023-03-18T01:35:00.989Z,11.63
2023-03-18T01:37:31.572Z,11.68
2023-03-18T01:40:14.646Z,13.93
2023-03-18T01:42:54.037Z,13.38
2023-03-18T01:45:28.636Z,12.15
2023-03-18T01:48:00.009Z,13.57
2023-03-18T01:50:33.815Z,13.80
2023-03-18T01:53:08.053Z,12.90
2023-03-18T01:55:39.931Z,13.93
2023-03-18T01:58:17.246Z,12.20
2023-03-18T02:00:53.696Z,12.60
2023-03-18T02:03:23.622Z,12.82
2023-03-18T02:05:53.853Z,13.25
2023-03-18T02:08:25.039Z,12.98
2023-03-18T02:10:54.522Z,11.90
2023-03-18T02:13:29.172Z,12.73
2023-03-18T02:16:14.319Z,12.50
2023-03-18T02:18:48.897Z,11.50
2023-03-18T02:21:45.023Z,11.35
2023-03-18T02:24:25.946Z,10.57
2023-03-18T02:27:01.512Z,11.05
2023-03-18T02:29:42.300Z,11.25
2023-03-18T02:32:18.577Z,11.52
2023-03-18T02:34:48.498Z,11.25
2023-03-18T02:37:17.610Z,10.48
2023-03-18T02:39:46.851Z,12.07
2023-03-18T02:42:18.300Z,10.77
2023-03-18T02:44:54.035Z,12.32
2023-03-18T02:47:48.950Z,11.13
2023-03-18T02:50:18.484Z,11.70
2023-03-18T02:52:47.650Z,11.38
2023-03-18T02:55:16.922Z,10.77
2023-03-18T02:57:46.230Z,11.63
2023-03-18T03:00:17.524Z,11.32
2023-03-18T03:02:46.974Z,11.82
2023-03-18T03:05:17.567Z,11.02
2023-03-18T03:07:46.728Z,11.30
2023-03-18T03:10:15.940Z,11.57
2023-03-18T03:12:46.334Z,10.25
2023-03-18T03:15:19.795Z,11.43
2023-03-18T03:17:55.559Z,10.95
2023-03-18T03:20:24.946Z,11.43
2023-03-18T03:22:54.444Z,11.63
2023-03-18T03:25:23.782Z,10.90
2023-03-18T03:27:52.956Z,12.02
2023-03-18T03:30:24.082Z,10.55
2023-03-18T03:32:53.639Z,11.07
2023-03-18T03:35:23.252Z,10.77
2023-03-18T03:37:52.613Z,11.13
2023-03-18T03:40:22.654Z,10.98
2023-03-18T03:42:53.329Z,10.48
2023-03-18T03:45:24.956Z,10.20
2023-03-18T03:47:55.951Z,10.45
2023-03-18T03:50:25.557Z,10.30
2023-03-18T03:52:54.605Z,11.05
2023-03-18T03:55:24.503Z,10.55
2023-03-18T03:57:57.616Z,9.40
2023-03-18T04:00:30.962Z,9.98
2023-03-18T04:03:00.454Z,10.88
2023-03-18T04:05:30.025Z,10.18
2023-03-18T04:08:01.861Z,11.02
2023-03-18T04:10:38.457Z,11.25
2023-03-18T04:13:10.968Z,11.15
2023-03-18T04:15:46.106Z,10.75
2023-03-18T04:18:19.372Z,11.93
2023-03-18T04:20:48.576Z,11.27
2023-03-18T04:23:43.389Z,11.20
2023-03-18T04:26:13.265Z,11.60
2023-03-18T04:28:43.010Z,12.18
2023-03-18T04:31:16.860Z,11.25
2023-03-18T04:33:46.300Z,11.43
2023-03-18T04:36:15.586Z,12.57
2023-03-18T04:38:44.646Z,11.30
2023-03-18T04:41:13.718Z,11.82
2023-03-18T04:43:43.441Z,11.43
2023-03-18T04:46:13.217Z,11.68
2023-03-18T04:48:45.800Z,11.55
2023-03-18T04:51:15.600Z,12.35
2023-03-18T04:53:45.810Z,12.25
2023-03-18T04:56:15.938Z,11.43
2023-03-18T04:58:50.858Z,12.55
2023-03-18T05:01:24.663Z,13.13
2023-03-18T05:03:56.113Z,14.57
2023-03-18T05:06:35.677Z,12.95
2023-03-18T05:09:13.346Z,12.25
2023-03-18T05:11:44.227Z,11.48
2023-03-18T05:14:28.944Z,13.23
2023-03-18T05:16:58.702Z,12.48
2023-03-18T05:19:30.385Z,12.18
2023-03-18T05:22:11.719Z,11.63
2023-03-18T05:24:41.576Z,12.38
2023-03-18T05:27:12.265Z,11.32
2023-03-18T05:29:44.536Z,12.45
2023-03-18T05:32:40.603Z,12.25
2023-03-18T05:35:12.890Z,11.60
2023-03-18T05:37:49.547Z,10.80
2023-03-18T05:40:19.379Z,12.15
2023-03-18T05:43:21.852Z,10.77
2023-03-18T05:45:55.348Z,11.63
2023-03-18T05:48:34.269Z,11.85
2023-03-18T05:51:08.556Z,11.27
2023-03-18T05:53:39.732Z,11.82
2023-03-18T05:56:20.859Z,10.82
2023-03-18T05:58:54.435Z,11.30
2023-03-18T06:01:37.474Z,11.77
2023-03-18T06:04:10.291Z,10.38
2023-03-18T06:06:41.154Z,11.15
2023-03-18T06:09:12.072Z,11.63
2023-03-18T06:11:44.607Z,11.48
2023-03-18T06:14:14.452Z,10.95
2023-03-18T06:16:43.986Z,11.73
2023-03-18T06:19:14.540Z,11.27
2023-03-18T06:21:45.586Z,11.27
2023-03-18T06:24:16.205Z,11.05
2023-03-18T06:26:45.736Z,11.43
2023-03-18T06:29:15.041Z,10.90
2023-03-18T06:31:44.026Z,10.57
2023-03-18T06:34:16.472Z,10.82
2023-03-18T06:36:47.523Z,11.40
2023-03-18T06:39:20.110Z,10.65
2023-03-18T06:41:49.251Z,10.18
2023-03-18T06:44:43.213Z,10.20
2023-03-18T06:47:22.270Z,11.45
2023-03-18T06:49:57.526Z,11.23
2023-03-18T06:52:34.202Z,11.18
2023-03-18T06:55:13.078Z,10.52
2023-03-18T06:57:45.728Z,10.35
2023-03-18T07:00:19.487Z,10.48
2023-03-18T07:02:50.564Z,9.75
2023-03-18T07:05:21.795Z,10.57
2023-03-18T07:07:52.951Z,10.95
2023-03-18T07:10:25.663Z,11.35
2023-03-18T07:12:58.738Z,8.35
2023-03-18T07:15:27.937Z,10.90
2023-03-18T07:18:00.513Z,10.80
2023-03-18T07:20:30.079Z,10.52
2023-03-18T07:23:00.575Z,10.80
2023-03-18T07:25:31.734Z,10.00
2023-03-18T07:28:05.038Z,10.27
2023-03-18T07:30:34.843Z,9.95
2023-03-18T07:33:04.723Z,9.60
2023-03-18T07:35:34.749Z,9.80
2023-03-18T07:38:05.422Z,9.52
2023-03-18T07:40:34.632Z,9.90
2023-03-18T07:43:03.711Z,8.73
2023-03-18T07:45:33.547Z,8.95
2023-03-18T07:48:02.890Z,8.05
2023-03-18T07:50:32.046Z,8.55
2023-03-18T07:53:01.622Z,8.32
2023-03-18T07:55:32.155Z,8.18
2023-03-18T07:58:01.426Z,7.75
2023-03-18T08:00:30.966Z,9.05
2023-03-18T08:03:00.967Z,8.02
2023-03-18T08:05:30.568Z,7.50
2023-03-18T08:07:59.870Z,7.63
2023-03-18T08:10:32.609Z,7.70
2023-03-18T08:13:01.683Z,7.70
2023-03-18T08:15:31.697Z,7.47
2023-03-18T08:18:01.244Z,8.23
2023-03-18T08:20:30.272Z,8.60
2023-03-18T08:22:59.446Z,8.18
2023-03-18T08:25:28.559Z,7.93
2023-03-18T08:27:59.106Z,7.65
2023-03-18T08:30:28.941Z,7.07
2023-03-18T08:33:01.055Z,8.43
2023-03-18T08:35:30.935Z,7.20
2023-03-18T08:38:00.438Z,7.57
2023-03-18T08:40:29.650Z,7.85
2023-03-18T08:43:00.170Z,7.63
2023-03-18T08:45:29.697Z,7.72
2023-03-18T08:47:58.781Z,7.95
2023-03-18T08:50:29.808Z,7.57
2023-03-18T08:53:01.571Z,8.10
2023-03-18T08:55:34.495Z,8.15
2023-03-18T08:58:07.290Z,7.45
2023-03-18T09:00:39.267Z,7.80
2023-03-18T09:03:08.933Z,8.13
2023-03-18T09:05:38.884Z,8.13
2023-03-18T09:08:08.048Z,7.78
2023-03-18T09:10:37.216Z,7.40
2023-03-18T09:13:08.270Z,8.73
2023-03-18T09:15:37.604Z,8.02
2023-03-18T09:18:12.280Z,7.63
2023-03-18T09:20:41.849Z,7.50
2023-03-18T09:23:12.334Z,8.32
2023-03-18T09:25:42.843Z,8.40
2023-03-18T09:28:14.235Z,8.52
2023-03-18T09:30:44.006Z,8.80
2023-03-18T09:33:13.765Z,8.43
2023-03-18T09:35:44.796Z,8.98
2023-03-18T09:38:16.649Z,8.30
2023-03-18T09:41:00.812Z,9.20
2023-03-18T09:43:53.469Z,8.82
2023-03-18T09:46:34.539Z,8.68
2023-03-18T09:49:54.982Z,8.30
2023-03-18T09:52:28.310Z,8.52
2023-03-18T09:55:04.931Z,9.05
2023-03-18T10:22:38.165Z,9.70
2023-03-18T10:25:21.236Z,9.25
2023-03-18T10:28:03.531Z,9.88
2023-03-18T10:30:55.128Z,9.80
2023-03-18T10:33:37.114Z,9.75
2023-03-18T10:36:13.919Z,10.85
2023-03-18T10:38:48.636Z,10.25
2023-03-18T10:41:24.656Z,9.95
2023-03-18T10:43:56.912Z,9.68
2023-03-18T10:46:28.418Z,9.77
2023-03-18T10:49:06.257Z,9.82
2023-03-18T10:51:41.249Z,9.15
2023-03-18T10:54:17.882Z,10.13
2023-03-18T10:56:47.010Z,10.53
2023-03-18T10:59:19.850Z,10.45
2023-03-18T11:01:54.204Z,9.68
2023-03-18T11:04:25.507Z,10.02
2023-03-18T11:06:58.800Z,10.52
2023-03-18T11:09:36.184Z,10.60
2023-03-18T11:12:07.454Z,10.27
2023-03-18T11:14:38.497Z,10.68
2023-03-18T11:17:21.066Z,10.52
2023-03-18T11:20:00.846Z,10.15
2023-03-18T11:22:32.164Z,10.35
2023-03-18T11:25:14.309Z,10.73
2023-03-18T11:27:46.372Z,10.27
2023-03-18T11:30:38.631Z,10.70
2023-03-18T11:33:17.435Z,9.57
2023-03-18T11:35:51.815Z,10.13
2023-03-18T11:38:28.673Z,10.57
2023-03-18T11:41:10.054Z,9.88
2023-03-18T11:43:39.448Z,10.75
2023-03-18T11:46:11.840Z,10.75
2023-03-18T11:48:43.342Z,10.45
2023-03-18T11:51:44.646Z,10.43
2023-03-18T11:54:39.525Z,10.73
2023-03-18T11:57:19.656Z,10.88
2023-03-18T12:00:05.960Z,10.05
2023-03-18T12:03:28.041Z,10.05
2023-03-18T12:06:10.847Z,10.10
2023-03-18T12:08:54.342Z,10.50
2023-03-18T12:11:36.242Z,9.77
2023-03-18T12:14:17.451Z,9.65
2023-03-18T12:17:04.152Z,10.00
2023-03-18T12:20:07.435Z,10.02
2023-03-18T12:22:55.208Z,9.68
2023-03-18T12:25:47.122Z,9.85
2023-03-18T12:28:30.104Z,10.05
2023-03-18T12:31:24.825Z,11.00
2023-03-18T12:33:57.685Z,11.07
2023-03-18T12:36:42.232Z,10.38
2023-03-18T12:40:00.528Z,10.20
2023-03-18T12:42:43.478Z,9.68
2023-03-18T12:45:18.503Z,9.90
2023-03-18T12:47:53.287Z,10.20
2023-03-18T12:50:27.935Z,9.70
2023-03-18T12:53:01.856Z,9.43
2023-03-18T12:55:35.594Z,10.18
2023-03-18T12:58:14.238Z,9.63
2023-03-18T13:00:49.328Z,9.55
2023-03-18T13:03:32.632Z,9.75
2023-03-18T13:06:07.620Z,9.50
2023-03-18T13:09:00.736Z,9.57
2023-03-18T13:12:01.904Z,9.35
2023-03-18T13:14:44.828Z,9.70
2023-03-18T13:17:16.654Z,9.43
2023-03-18T13:19:47.362Z,9.40
2023-03-18T13:22:51.844Z,9.77
2023-03-18T13:25:35.456Z,10.23
2023-03-18T13:28:29.481Z,9.73
2023-03-18T13:31:12.403Z,9.63
2023-03-18T13:34:26.263Z,9.82
2023-03-18T13:37:36.046Z,9.35
2023-03-18T13:40:38.478Z,8.60
2023-03-18T13:43:14.234Z,9.75
2023-03-18T13:45:47.249Z,10.15
2023-03-18T13:48:19.728Z,10.70
2023-03-18T13:50:51.975Z,8.80
2023-03-18T13:53:28.040Z,9.73
2023-03-18T13:56:07.063Z,9.82
2023-03-18T13:58:45.212Z,9.70
2023-03-18T14:01:32.096Z,10.25
2023-03-18T14:04:20.384Z,10.00
2023-03-18T14:07:01.486Z,10.43
2023-03-18T14:09:37.310Z,11.43
2023-03-18T14:12:22.657Z,10.50
2023-03-18T14:15:02.677Z,11.00
2023-03-18T14:17:45.678Z,10.60
2023-03-18T14:20:40.555Z,11.82
2023-03-18T14:23:34.527Z,10.88
2023-03-18T14:26:08.926Z,10.30
2023-03-18T14:28:47.271Z,11.48
2023-03-18T14:31:33.623Z,10.80
2023-03-18T14:34:26.129Z,10.57
2023-03-18T14:37:25.539Z,10.77
2023-03-18T14:39:58.368Z,10.98
2023-03-18T14:42:46.176Z,10.68
2023-03-18T14:47:52.802Z,10.75
2023-03-18T14:50:33.774Z,11.00
2023-03-18T14:53:11.444Z,10.65
2023-03-18T14:55:40.539Z,10.45
2023-03-18T14:58:19.970Z,9.57
2023-03-18T15:00:53.310Z,10.05
2023-03-18T15:03:26.732Z,10.43
2023-03-18T15:06:00.454Z,10.73
2023-03-18T15:08:46.830Z,10.60
2023-03-18T15:11:20.601Z,11.13
2023-03-18T15:13:54.675Z,9.90
2023-03-18T15:16:25.698Z,10.40
2023-03-18T15:18:56.536Z,10.30
2023-03-18T15:21:30.239Z,10.63
2023-03-18T15:24:04.610Z,10.13
2023-03-18T15:26:41.410Z,10.23
2023-03-18T15:29:29.129Z,11.07
2023-03-18T15:32:10.788Z,10.60
2023-03-18T15:34:43.861Z,9.85
2023-03-18T15:37:33.555Z,10.13
2023-03-18T15:40:35.395Z,10.30
2023-03-18T15:43:20.351Z,10.40
2023-03-18T15:45:57.164Z,9.88
2023-03-18T15:48:32.055Z,10.52
2023-03-18T15:51:04.330Z,9.98
2023-03-18T15:53:44.533Z,10.82
2023-03-18T15:56:19.900Z,10.90
2023-03-18T15:59:00.860Z,11.20
2023-03-18T16:01:31.740Z,10.73
2023-03-18T16:04:00.967Z,10.38
2023-03-18T16:06:29.929Z,11.23
2023-03-18T16:08:59.007Z,10.00
2023-03-18T16:11:28.068Z,9.95
2023-03-18T16:13:57.186Z,10.00
2023-03-18T16:16:29.422Z,11.05
2023-03-18T16:19:00.509Z,9.80
2023-03-18T16:21:29.441Z,11.93
2023-03-18T16:23:58.338Z,9.88
2023-03-18T16:26:27.410Z,10.93
2023-03-18T16:28:56.479Z,10.43
2023-03-18T16:31:25.903Z,10.00
2023-03-18T16:33:56.169Z,9.88
2023-03-18T16:36:35.057Z,10.63
2023-03-18T16:39:16.422Z,10.70
2023-03-18T16:41:46.140Z,10.57
2023-03-18T16:44:18.560Z,9.52
2023-03-18T16:46:51.216Z,10.65
2023-03-18T16:49:24.521Z,9.30
2023-03-18T16:51:58.086Z,10.05
2023-03-18T16:54:29.542Z,10.43
2023-03-18T16:57:01.591Z,11.65
2023-03-18T16:59:34.040Z,10.90
2023-03-18T17:02:04.268Z,10.52
2023-03-18T17:04:36.209Z,11.15
2023-03-18T17:07:06.889Z,10.77
2023-03-18T17:09:35.818Z,11.75
2023-03-18T17:12:07.528Z,11.63
2023-03-18T17:14:39.862Z,10.77
2023-03-18T17:17:19.173Z,10.68
2023-03-18T17:19:48.570Z,9.82
2023-03-18T17:22:23.409Z,10.15
2023-03-18T17:24:52.715Z,9.55
2023-03-18T17:27:25.577Z,10.00
2023-03-18T17:29:55.035Z,9.50
2023-03-18T17:32:30.422Z,10.50
2023-03-18T17:34:59.451Z,10.32
2023-03-18T17:37:30.414Z,10.52
2023-03-18T17:39:59.440Z,9.75
2023-03-18T17:42:31.430Z,11.02
2023-03-18T17:45:07.512Z,11.20
2023-03-18T17:47:36.781Z,10.25
2023-03-18T17:50:06.712Z,10.23
2023-03-18T17:52:39.665Z,11.48
2023-03-18T17:55:17.321Z,12.35
2023-03-18T17:57:46.572Z,10.57
2023-03-18T18:00:21.418Z,9.88
2023-03-18T18:02:50.715Z,9.88
2023-03-18T18:05:23.200Z,9.80
2023-03-18T18:07:53.489Z,9.15
2023-03-18T18:10:22.592Z,7.72
2023-03-18T18:12:51.519Z,9.00
2023-03-18T18:15:25.547Z,9.20
2023-03-18T18:17:55.759Z,10.85
2023-03-18T18:20:24.748Z,10.48
2023-03-18T18:22:58.090Z,11.88
2023-03-18T18:25:30.251Z,13.02
2023-03-18T18:27:59.372Z,13.35
2023-03-18T18:30:28.554Z,13.55
2023-03-18T18:32:57.701Z,11.95
2023-03-18T18:35:26.997Z,12.80
2023-03-18T18:37:57.372Z,11.32
2023-03-18T18:40:26.321Z,10.52
2023-03-18T18:42:55.237Z,11.60
2023-03-18T18:45:24.185Z,9.95
2023-03-18T18:47:53.366Z,11.55
2023-03-18T18:50:28.191Z,11.30
2023-03-18T18:52:58.576Z,11.20
2023-03-18T18:55:27.618Z,9.30
2023-03-18T18:57:57.694Z,10.07
2023-03-18T19:00:27.201Z,9.32
2023-03-18T19:02:57.363Z,9.38
2023-03-18T19:05:26.575Z,11.50
2023-03-18T19:07:55.500Z,18.52
2023-03-18T19:10:26.485Z,14.63
2023-03-18T19:12:55.500Z,13.00
2023-03-18T19:15:24.695Z,13.27
2023-03-18T19:17:53.893Z,14.50
2023-03-18T19:20:31.782Z,13.13
2023-03-18T19:23:01.769Z,14.88
2023-03-18T19:25:34.990Z,17.60
2023-03-18T19:28:04.406Z,18.70
2023-03-18T19:30:34.056Z,17.02
2023-03-18T19:33:03.774Z,14.27
2023-03-18T19:35:33.009Z,13.20
2023-03-18T19:38:02.630Z,15.02
2023-03-18T19:40:34.172Z,14.45
2023-03-18T19:43:03.140Z,13.82
2023-03-18T19:45:32.562Z,16.20
2023-03-18T19:48:02.224Z,19.65
2023-03-18T19:50:31.693Z,19.42
2023-03-18T19:53:00.876Z,16.55
2023-03-18T19:55:29.975Z,16.75
2023-03-18T19:58:00.773Z,14.43
2023-03-18T20:00:30.580Z,14.15
2023-03-18T20:02:59.965Z,17.27
2023-03-18T20:05:29.078Z,16.27
2023-03-18T20:07:58.149Z,15.88
2023-03-18T20:10:27.089Z,16.02
2023-03-18T20:12:56.286Z,17.70
2023-03-18T20:15:29.285Z,16.88
2023-03-18T20:18:00.734Z,17.27
2023-03-18T20:20:32.259Z,17.20
2023-03-18T20:23:03.892Z,17.35
2023-03-18T20:25:37.672Z,15.85
2023-03-18T20:28:08.963Z,16.65
2023-03-18T20:30:41.461Z,17.67
2023-03-18T20:33:14.000Z,17.45
2023-03-18T20:35:49.231Z,17.40
2023-03-18T20:38:27.555Z,16.25
2023-03-18T20:40:57.291Z,17.83
2023-03-18T20:43:28.601Z,16.90
2023-03-18T20:46:02.230Z,18.95
2023-03-18T20:48:31.500Z,18.67
2023-03-18T20:51:00.502Z,17.02
2023-03-18T20:53:29.762Z,17.95
2023-03-18T20:56:10.016Z,18.35
2023-03-18T20:58:39.162Z,17.80
2023-03-18T21:01:13.761Z,18.00
2023-03-18T21:03:43.552Z,18.10
2023-03-18T21:06:15.790Z,16.88
2023-03-18T21:08:44.899Z,15.98
2023-03-18T21:11:35.846Z,14.23
2023-03-18T21:14:05.741Z,14.80
2023-03-18T21:16:37.836Z,14.70
2023-03-18T21:19:07.072Z,13.48
2023-03-18T21:21:39.274Z,12.63
2023-03-18T21:24:26.170Z,13.95
2023-03-18T21:27:04.204Z,14.45
2023-03-18T21:29:35.099Z,15.45
2023-03-18T21:32:06.425Z,16.83
2023-03-18T21:34:35.403Z,17.70
2023-03-18T21:37:04.545Z,18.50
2023-03-18T21:39:33.612Z,18.17
2023-03-18T21:42:07.024Z,18.63
2023-03-18T21:44:36.549Z,19.23
2023-03-18T21:47:07.558Z,19.90
2023-03-18T21:49:36.583Z,19.90
2023-03-18T21:52:06.055Z,18.75
2023-03-18T21:54:35.138Z,18.08
2023-03-18T21:57:04.130Z,18.85
2023-03-18T21:59:33.130Z,21.25
2023-03-18T22:02:02.074Z,20.60
2023-03-18T22:04:34.994Z,19.90
2023-03-18T22:07:03.939Z,19.67
2023-03-18T22:09:34.076Z,18.65
2023-03-18T22:12:03.131Z,19.42
2023-03-18T22:14:32.148Z,19.08
2023-03-18T22:17:01.556Z,18.67
2023-03-18T22:19:31.963Z,19.98
2023-03-18T22:22:00.973Z,19.58
2023-03-18T22:24:30.104Z,18.77
2023-03-18T22:26:59.042Z,20.50
2023-03-18T22:29:28.041Z,19.33
2023-03-18T22:31:57.023Z,20.67
2023-03-18T22:34:26.388Z,22.73
2023-03-18T22:36:56.748Z,20.60
2023-03-18T22:39:26.010Z,20.77
2023-03-18T22:41:55.138Z,19.95
2023-03-18T22:44:25.279Z,22.02
2023-03-18T22:46:54.203Z,20.77
2023-03-18T22:49:23.089Z,21.33
2023-03-18T22:51:52.188Z,20.90
2023-03-18T22:54:26.322Z,22.05
2023-03-18T22:56:56.429Z,20.30
2023-03-18T22:59:26.844Z,19.48
2023-03-18T23:01:55.779Z,18.88
2023-03-18T23:04:24.846Z,19.30
2023-03-18T23:06:53.901Z,21.00
2023-03-18T23:09:24.223Z,21.98
2023-03-18T23:11:53.234Z,20.48
2023-03-18T23:14:22.177Z,20.90
2023-03-18T23:16:51.185Z,19.40
2023-03-18T23:19:20.383Z,18.30
2023-03-18T23:21:49.340Z,18.35
2023-03-18T23:24:18.211Z,18.67
2023-03-18T23:26:48.587Z,18.60
2023-03-18T23:29:17.783Z,18.60
2023-03-18T23:31:47.062Z,18.63
2023-03-18T23:34:16.063Z,19.38
2023-03-18T23:36:45.021Z,17.17
2023-03-18T23:39:14.154Z,17.45
2023-03-18T23:41:43.100Z,16.90
2023-03-18T23:44:13.553Z,17.73
2023-03-18T23:46:44.116Z,16.65
2023-03-18T23:49:14.087Z,16.95
2023-03-18T23:51:43.195Z,17.15
2023-03-18T23:54:12.285Z,18.15
2023-03-18T23:56:41.441Z,17.50
2023-03-18T23:59:10.548Z,16.02
